29°C Temp
21°C Dewpoint
62% Humidity
Temperature
26 KM/H
16 MPH
14 KTS
80°
Due East

Wind Speed
Partly Cloudy
Conditions
Pressure 1017.92 (hPa) - 30.06 (in)
Visibility 6.2 (mi) - 10.0 (km)

Current Conditions
LEPA
Location 15(km)
Metar :LEPA 151630Z 08014KT 050V110 9999 FEW025 29/21 Q1018 NOSIG
Sun 15th September 17:30 pm

Airport
  Metar Aviation API Data Provided by https://www.checkwx.com/ PHP scripts by weather34.com ©2019